Time;durP1;ratioP1;P1;durP2;ratioP2;P2;SDS_P1;SDS_P2;PMS_P1;PMS_P2;Temp;Humidity;BMP_temperature;BMP_pressure;BME280_temperature;BME280_humidity;BME280_pressure;Samples;Min_cycle;Max_cycle;Signal;HPM_P1;HPM_P2
2022/01/23 00:00:27;;;;;;;20.20;6.47;;;29.80;73.60;;;;;;5084556;28;20016;-57
2022/01/23 00:03:00;;;;;;;16.27;6.05;;;29.90;73.90;;;;;;5085078;28;20100;-53
2022/01/23 00:05:34;;;;;;;16.75;7.40;;;29.80;73.80;;;;;;5084536;28;20083;-53
2022/01/23 00:08:03;;;;;;;16.63;6.53;;;29.80;73.90;;;;;;5084659;28;20016;-55
2022/01/23 00:10:35;;;;;;;19.13;7.80;;;29.80;73.90;;;;;;5084440;28;20179;-53
2022/01/23 00:17:16;;;;;;;18.50;7.30;;;29.80;74.00;;;;;;5084615;28;20021;-54
2022/01/23 00:18:47;;;;;;;17.33;7.68;;;29.80;74.20;;;;;;5083590;28;20139;-54
2022/01/23 00:21:14;;;;;;;16.17;7.65;;;29.80;74.10;;;;;;5084037;28;20045;-57
2022/01/23 00:31:39;;;;;;;23.80;7.22;;;29.70;73.50;;;;;;5084534;28;20197;-54
2022/01/23 00:34:06;;;;;;;15.68;6.68;;;29.80;73.60;;;;;;5083156;28;20025;-51
2022/01/23 00:36:38;;;;;;;10.80;5.90;;;29.70;73.40;;;;;;5084337;28;20324;-56
2022/01/23 00:39:05;;;;;;;27.27;14.63;;;29.70;73.30;;;;;;5083253;28;20052;-52
2022/01/23 00:41:31;;;;;;;31.70;15.00;;;29.70;73.30;;;;;;5083411;28;20301;-56
2022/01/23 00:44:00;;;;;;;28.70;15.95;;;29.70;73.30;;;;;;5083967;28;20036;-55
2022/01/23 00:46:36;;;;;;;30.13;14.27;;;29.70;73.30;;;;;;5084096;28;20027;-54
2022/01/23 00:51:39;;;;;;;26.67;9.48;;;29.70;73.20;;;;;;5084100;28;20012;-54
2022/01/23 00:54:12;;;;;;;22.30;7.53;;;29.60;73.00;;;;;;5082278;28;20111;-54
2022/01/23 00:56:45;;;;;;;19.65;7.47;;;29.70;72.90;;;;;;5084120;28;20024;-54
2022/01/23 00:59:13;;;;;;;19.65;7.10;;;29.70;72.90;;;;;;5083512;28;20020;-53
2022/01/23 01:01:40;;;;;;;13.48;6.20;;;29.70;72.70;;;;;;5084114;28;20037;-59
2022/01/23 01:04:07;;;;;;;22.70;6.65;;;29.70;72.50;;;;;;5082391;28;20020;-54
2022/01/23 01:06:37;;;;;;;15.48;6.20;;;29.60;72.40;;;;;;5083991;28;20021;-55
2022/01/23 01:09:06;;;;;;;20.05;6.40;;;29.70;72.30;;;;;;5082510;28;20297;-58
2022/01/23 01:14:36;;;;;;;15.30;5.88;;;29.60;72.10;;;;;;5083589;28;20032;-52
2022/01/23 01:17:23;;;;;;;;;;;29.70;72.10;;;;;;5084628;28;20025;-49
2022/01/23 01:36:36;;;;;;;10.80;4.88;;;29.60;72.00;;;;;;5071281;28;20189;-50
2022/01/23 01:38:55;;;;;;;11.57;4.80;;;29.50;71.80;;;;;;5062842;28;20029;-46
2022/01/23 01:41:22;;;;;;;7.75;4.43;;;29.50;71.70;;;;;;5068231;28;20028;-48
2022/01/23 01:43:51;;;;;;;10.55;4.35;;;29.50;71.30;;;;;;5072324;28;20313;-49
2022/01/23 01:46:22;;;;;;;13.23;4.85;;;29.50;71.40;;;;;;5072419;28;20061;-44
2022/01/23 01:48:50;;;;;;;12.25;4.68;;;29.50;71.30;;;;;;5029003;28;20029;-45
2022/01/23 01:51:18;;;;;;;13.55;4.90;;;29.50;71.00;;;;;;5063204;28;20088;-45
2022/01/23 01:53:51;;;;;;;15.25;4.88;;;29.50;71.00;;;;;;5081007;28;20036;-52
2022/01/23 01:56:18;;;;;;;10.32;4.75;;;29.50;71.00;;;;;;5076136;28;20100;-44
2022/01/23 02:17:27;;;;;;;10.93;4.88;;;29.40;71.00;;;;;;5086851;28;20074;-56
2022/01/23 02:50:36;;;;;;;12.38;4.63;;;29.40;71.20;;;;;;5086422;28;20013;-48
2022/01/23 02:55:55;;;;;;;7.82;4.95;;;29.30;72.60;;;;;;5066171;28;20060;-49
2022/01/23 02:58:25;;;;;;;33.10;5.82;;;29.30;72.90;;;;;;5066793;28;20032;-44
2022/01/23 03:01:10;;;;;;;15.43;5.38;;;29.30;73.20;;;;;;5083308;28;20323;-46
2022/01/23 03:03:41;;;;;;;16.80;5.20;;;29.20;73.20;;;;;;5073472;28;20048;-46
2022/01/23 03:14:42;;;;;;;8.98;5.20;;;29.30;73.80;;;;;;5082066;28;20042;-47
2022/01/23 03:25:27;;;;;;;10.23;5.72;;;29.20;73.90;;;;;;5080592;28;20047;-49
2022/01/23 03:29:00;;;;;;;10.43;5.70;;;29.20;73.90;;;;;;5080846;28;20063;-45
2022/01/23 03:30:52;;;;;;;19.42;5.40;;;29.20;74.10;;;;;;5084677;28;20035;-47
2022/01/23 03:33:19;;;;;;;44.80;6.07;;;29.20;74.20;;;;;;5085085;28;20179;-49
2022/01/23 03:35:46;;;;;;;27.02;5.97;;;29.20;74.10;;;;;;5085060;28;20284;-44
2022/01/23 03:38:13;;;;;;;13.98;5.55;;;29.20;74.10;;;;;;5084770;28;20021;-48
2022/01/23 03:40:39;;;;;;;15.18;5.80;;;29.20;74.20;;;;;;5084891;28;20024;-43
2022/01/23 03:43:11;;;;;;;16.27;5.57;;;29.20;74.30;;;;;;5084753;28;20016;-47
2022/01/23 03:50:42;;;;;;;15.85;5.70;;;29.10;74.50;;;;;;5084538;28;20205;-44
2022/01/23 03:53:09;;;;;;;11.40;5.38;;;29.10;74.50;;;;;;5071217;28;20031;-45
2022/01/23 03:55:36;;;;;;;7.80;4.90;;;29.10;74.50;;;;;;5084459;28;20020;-46
2022/01/23 03:58:04;;;;;;;21.80;5.50;;;29.10;74.70;;;;;;5084280;28;20019;-46
2022/01/23 04:00:31;;;;;;;16.83;4.68;;;29.10;74.80;;;;;;5084533;28;20020;-49
2022/01/23 04:02:57;;;;;;;17.50;4.70;;;29.10;74.50;;;;;;5084228;28;20023;-45
2022/01/23 04:05:24;;;;;;;26.73;5.47;;;29.10;74.10;;;;;;5084093;28;20027;-46
2022/01/23 04:07:51;;;;;;;163.70;11.05;;;29.00;73.60;;;;;;5084246;28;20136;-43
2022/01/23 04:10:20;;;;;;;52.55;6.38;;;29.00;73.40;;;;;;5083558;28;20297;-43
2022/01/23 04:12:54;;;;;;;44.50;5.57;;;28.90;73.20;;;;;;5083824;28;20035;-47
2022/01/23 18:32:01;;;;;;;12.57;4.32;;;26.00;87.70;;;;;;5080502;28;20458;-52
2022/01/23 18:34:27;;;;;;;9.55;4.22;;;26.60;85.90;;;;;;5081136;28;20032;-52
2022/01/23 18:36:54;;;;;;;12.52;3.97;;;26.60;86.00;;;;;;5080756;28;20208;-53
2022/01/23 18:39:20;;;;;;;8.00;4.40;;;26.70;86.00;;;;;;5080981;28;20093;-55
2022/01/23 18:41:49;;;;;;;10.55;4.10;;;26.70;86.00;;;;;;5080995;28;20021;-51
2022/01/23 18:44:16;;;;;;;16.75;4.45;;;26.70;86.30;;;;;;5080741;28;20016;-54
2022/01/23 18:46:43;;;;;;;14.60;4.28;;;26.80;86.10;;;;;;5080768;28;20123;-57
2022/01/23 18:49:09;;;;;;;13.52;3.88;;;26.80;85.90;;;;;;5080823;28;20251;-57
2022/01/23 18:51:37;;;;;;;15.93;4.60;;;26.80;85.90;;;;;;5064598;28;20242;-53
2022/01/23 18:56:56;;;;;;;47.17;7.90;;;26.90;85.20;;;;;;5060608;28;20010;-50
2022/01/23 18:59:25;;;;;;;43.53;6.80;;;26.90;85.00;;;;;;5060600;28;20086;-55
2022/01/23 19:01:55;;;;;;;34.47;5.93;;;26.90;85.00;;;;;;5060530;28;20013;-54
2022/01/23 19:04:25;;;;;;;48.17;6.18;;;26.90;84.80;;;;;;5060452;28;20289;-54
2022/01/23 19:07:01;;;;;;;47.47;7.63;;;26.90;84.40;;;;;;5060337;28;20021;-52
2022/01/23 19:09:32;;;;;;;27.52;5.22;;;26.90;83.90;;;;;;5060381;28;20286;-51
2022/01/23 19:12:03;;;;;;;29.98;5.45;;;27.00;83.70;;;;;;5060371;28;20020;-48
2022/01/23 19:14:29;;;;;;;17.90;4.45;;;27.00;83.50;;;;;;5060319;28;20229;-51
2022/01/23 19:16:58;;;;;;;13.50;4.18;;;27.00;83.30;;;;;;5060117;28;20041;-54
2022/01/23 19:19:24;;;;;;;21.40;4.90;;;27.00;83.70;;;;;;5060253;28;20056;-53
2022/01/23 19:21:53;;;;;;;34.53;4.82;;;27.10;83.70;;;;;;5060065;28;20071;-53
2022/01/23 19:24:21;;;;;;;33.75;6.13;;;27.10;83.70;;;;;;5060087;28;20296;-50
2022/01/23 19:26:48;;;;;;;26.77;5.10;;;27.20;83.80;;;;;;5060051;28;20089;-51
2022/01/23 19:29:15;;;;;;;18.98;4.05;;;27.20;83.70;;;;;;5060102;28;20094;-51
2022/01/23 19:31:43;;;;;;;12.90;3.70;;;27.20;83.20;;;;;;5048651;28;20029;-54
2022/01/23 19:34:10;;;;;;;11.85;3.80;;;27.30;82.70;;;;;;5035475;28;20068;-52
2022/01/23 19:36:39;;;;;;;15.40;3.65;;;27.30;82.60;;;;;;5026885;28;20065;-52
2022/01/23 19:39:05;;;;;;;15.27;3.75;;;27.30;82.70;;;;;;5026508;28;20310;-54
2022/01/23 19:41:40;;;;;;;9.25;3.38;;;27.30;82.50;;;;;;5026560;28;20332;-50
2022/01/23 19:44:53;;;;;;;13.25;3.42;;;27.40;82.60;;;;;;5026669;28;20025;-48
2022/01/23 19:47:09;;;;;;;8.68;3.20;;;27.40;82.30;;;;;;5026173;28;20030;-52
2022/01/23 19:49:41;;;;;;;9.20;3.20;;;27.40;81.80;;;;;;5026521;28;20026;-54
2022/01/23 19:52:09;;;;;;;8.10;2.70;;;27.40;81.70;;;;;;5026482;28;20026;-57
2022/01/23 19:54:36;;;;;;;6.40;2.90;;;27.40;81.60;;;;;;5026533;28;20060;-54
2022/01/23 19:57:02;;;;;;;8.23;2.75;;;27.50;82.00;;;;;;5026253;28;20018;-53
2022/01/23 19:59:30;;;;;;;8.73;3.05;;;27.50;82.20;;;;;;5026109;28;20040;-55
2022/01/23 20:01:57;;;;;;;5.03;2.60;;;27.50;82.50;;;;;;5036201;28;20293;-56
2022/01/23 20:04:23;;;;;;;6.72;3.10;;;27.50;82.40;;;;;;5026141;28;20017;-50
2022/01/23 20:06:50;;;;;;;11.68;3.30;;;27.50;82.30;;;;;;5034600;28;20306;-55
2022/01/23 20:09:17;;;;;;;10.43;3.10;;;27.50;82.40;;;;;;5042400;28;20034;-52
2022/01/23 20:14:16;;;;;;;7.15;3.03;;;27.50;81.90;;;;;;5033946;28;20089;-53
2022/01/23 20:16:44;;;;;;;9.20;3.20;;;27.50;81.80;;;;;;5028263;28;20084;-53
2022/01/23 20:19:14;;;;;;;8.65;2.60;;;27.50;82.00;;;;;;5037046;28;20029;-53
2022/01/23 20:21:44;;;;;;;15.45;3.03;;;27.50;82.20;;;;;;5034652;28;20055;-54
2022/01/23 20:24:12;;;;;;;12.48;3.20;;;27.50;82.00;;;;;;5034414;28;20022;-53
2022/01/23 20:26:40;;;;;;;9.00;2.88;;;27.60;81.60;;;;;;5032332;28;20014;-55
2022/01/23 20:29:06;;;;;;;9.80;2.60;;;27.60;81.20;;;;;;5027792;28;20017;-55
2022/01/23 20:31:33;;;;;;;8.95;3.00;;;27.60;81.00;;;;;;5035633;28;20038;-57
2022/01/23 20:33:59;;;;;;;18.45;3.45;;;27.60;81.00;;;;;;5025690;28;20068;-54
2022/01/23 20:36:26;;;;;;;12.40;3.10;;;27.50;81.10;;;;;;5025750;28;20038;-58
2022/01/23 20:38:54;;;;;;;9.25;2.85;;;27.60;81.10;;;;;;5025359;28;20229;-58
2022/01/23 20:43:48;;;;;;;10.85;3.45;;;27.60;81.20;;;;;;5024561;28;20014;-53
2022/01/23 20:46:15;;;;;;;17.27;3.63;;;27.60;80.90;;;;;;5025389;28;20085;-53
2022/01/23 20:48:44;;;;;;;13.88;3.75;;;27.50;80.80;;;;;;5025544;28;20032;-54
2022/01/23 20:51:11;;;;;;;14.13;3.53;;;27.60;81.00;;;;;;5025551;28;20034;-53
2022/01/23 20:56:17;;;;;;;14.00;3.88;;;27.60;79.80;;;;;;5024180;28;20022;-53
2022/01/23 20:58:45;;;;;;;18.23;4.13;;;27.60;79.70;;;;;;5025187;28;20021;-54
2022/01/23 21:01:15;;;;;;;12.60;3.95;;;27.60;79.50;;;;;;5024875;28;20026;-57
2022/01/23 21:03:53;;;;;;;13.05;3.65;;;27.60;79.20;;;;;;5025068;28;20209;-53
2022/01/23 21:06:23;;;;;;;12.65;3.40;;;27.60;78.70;;;;;;5024906;28;20038;-55
2022/01/23 21:08:49;;;;;;;12.30;3.80;;;27.60;78.80;;;;;;5025057;28;20022;-54
2022/01/23 21:11:36;;;;;;;13.40;3.92;;;27.60;78.90;;;;;;5023906;28;20022;-54
2022/01/23 21:14:10;;;;;;;15.38;4.53;;;27.60;78.80;;;;;;5023174;28;20061;-58
2022/01/23 21:17:00;;;;;;;19.70;4.13;;;27.60;79.10;;;;;;5022313;28;20025;-55
2022/01/23 21:22:14;;;;;;;17.42;5.07;;;27.60;79.50;;;;;;5022966;28;20026;-56
2022/01/23 21:40:51;;;;;;;12.18;3.67;;;27.60;80.40;;;;;;5042437;28;20068;-53
2022/01/23 21:43:19;;;;;;;11.82;3.58;;;27.60;80.50;;;;;;5042425;28;20097;-58
2022/01/23 21:45:52;;;;;;;18.48;3.83;;;27.60;80.40;;;;;;5026987;28;20221;-54
2022/01/23 21:48:20;;;;;;;12.50;3.53;;;27.60;80.60;;;;;;5026051;28;20076;-50
2022/01/23 21:50:50;;;;;;;69.03;28.95;;;27.60;80.80;;;;;;5042451;28;20217;-57
2022/01/23 21:53:18;;;;;;;53.65;12.45;;;27.60;80.90;;;;;;5042459;28;20021;-52
2022/01/23 21:55:45;;;;;;;39.35;8.73;;;27.60;81.30;;;;;;5041660;28;20072;-52
2022/01/23 21:58:13;;;;;;;20.98;6.00;;;27.60;81.50;;;;;;5042384;28;20084;-54
2022/01/23 22:00:41;;;;;;;24.15;5.05;;;27.50;81.30;;;;;;5042054;28;20033;-54
2022/01/23 22:03:07;;;;;;;21.50;5.15;;;27.60;81.30;;;;;;5041807;28;20036;-51
2022/01/23 22:05:35;;;;;;;20.05;4.82;;;27.50;81.30;;;;;;5024630;28;20026;-56
2022/01/23 22:08:06;;;;;;;19.77;4.35;;;27.60;81.30;;;;;;5023961;28;20041;-52
2022/01/23 22:10:42;;;;;;;18.20;3.95;;;27.60;81.30;;;;;;5024187;28;20175;-55
2022/01/23 22:16:00;;;;;;;24.73;3.97;;;27.50;81.10;;;;;;5039699;28;20025;-53
2022/01/23 22:18:40;;;;;;;22.45;4.40;;;27.50;81.10;;;;;;5035952;28;20428;-52
2022/01/23 22:21:10;;;;;;;29.38;5.30;;;27.50;81.20;;;;;;5033146;28;20026;-51
2022/01/23 22:28:57;;;;;;;29.95;5.63;;;27.50;81.40;;;;;;5034501;28;20029;-57
2022/01/23 22:31:24;;;;;;;31.65;5.43;;;27.50;81.40;;;;;;5033826;28;20045;-54
2022/01/23 22:33:51;;;;;;;25.67;5.15;;;27.50;81.50;;;;;;5032434;28;20025;-50
2022/01/23 22:36:19;;;;;;;22.48;5.05;;;27.50;81.50;;;;;;5032209;28;20014;-58
2022/01/23 22:38:46;;;;;;;17.02;4.90;;;27.50;81.60;;;;;;5038118;28;20092;-57
2022/01/23 22:41:15;;;;;;;23.25;4.90;;;27.50;81.70;;;;;;5034913;28;20025;-57
2022/01/23 22:43:57;;;;;;;19.30;5.03;;;27.50;81.80;;;;;;5042554;28;20045;-53
2022/01/23 22:46:27;;;;;;;25.27;4.70;;;27.50;81.70;;;;;;5040532;28;20018;-56
2022/01/23 22:48:56;;;;;;;20.90;4.38;;;27.50;81.50;;;;;;5037538;28;20025;-53
2022/01/23 22:51:27;;;;;;;21.27;4.28;;;27.50;81.20;;;;;;5041029;28;20033;-55
2022/01/23 22:53:54;;;;;;;28.02;4.90;;;27.40;80.80;;;;;;5042577;28;20009;-55
2022/01/23 22:56:21;;;;;;;26.75;5.82;;;27.50;80.60;;;;;;5042343;28;20076;-55
2022/01/23 22:58:48;;;;;;;26.27;5.85;;;27.40;80.30;;;;;;5041699;28;20049;-57
2022/01/23 23:01:15;;;;;;;14.95;5.65;;;27.40;80.40;;;;;;5040412;28;20045;-56
2022/01/23 23:03:42;;;;;;;28.92;5.28;;;27.40;80.40;;;;;;5036428;28;20088;-54
2022/01/23 23:06:10;;;;;;;27.23;6.00;;;27.40;80.50;;;;;;5034335;28;20040;-53
2022/01/23 23:08:38;;;;;;;19.83;4.80;;;27.40;80.70;;;;;;5038801;28;20032;-56
2022/01/23 23:11:09;;;;;;;17.17;4.50;;;27.40;80.70;;;;;;5035363;28;20332;-51
2022/01/23 23:13:40;;;;;;;20.65;4.18;;;27.40;81.00;;;;;;5036385;28;20028;-57
2022/01/23 23:16:12;;;;;;;13.70;3.67;;;27.40;81.20;;;;;;5040970;28;20033;-55
2022/01/23 23:18:58;;;;;;;13.68;3.60;;;27.40;81.50;;;;;;5035670;28;20018;-55
2022/01/23 23:21:35;;;;;;;18.48;3.38;;;27.40;81.80;;;;;;5034827;28;20025;-55
2022/01/23 23:24:04;;;;;;;15.60;3.83;;;27.30;82.10;;;;;;5037898;28;20216;-61
2022/01/23 23:26:33;;;;;;;9.20;3.50;;;27.40;82.20;;;;;;5034592;28;20064;-56
2022/01/23 23:29:00;;;;;;;18.25;3.45;;;27.30;82.60;;;;;;5036074;28;20348;-55
2022/01/23 23:31:27;;;;;;;22.80;3.75;;;27.30;82.90;;;;;;5035213;28;20038;-53
2022/01/23 23:33:55;;;;;;;12.35;3.60;;;27.30;83.00;;;;;;5035301;28;20020;-53
2022/01/23 23:36:22;;;;;;;11.82;3.40;;;27.30;83.20;;;;;;5037361;28;20081;-55
2022/01/23 23:38:51;;;;;;;8.63;2.58;;;27.30;83.20;;;;;;5037460;28;20033;-55
2022/01/23 23:44:01;;;;;;;11.32;2.38;;;27.30;82.90;;;;;;5042589;28;20018;-55
2022/01/23 23:46:35;;;;;;;8.82;2.30;;;27.30;82.90;;;;;;5045331;28;20048;-56
2022/01/23 23:51:34;;;;;;;6.63;1.80;;;27.20;82.70;;;;;;5046343;28;20017;-55
2022/01/23 23:54:07;;;;;;;4.78;1.80;;;27.20;82.50;;;;;;5046302;28;20025;-62
2022/01/23 23:56:40;;;;;;;6.13;1.80;;;27.20;82.40;;;;;;5046170;28;20025;-53
2022/01/23 23:59:07;;;;;;;10.32;2.38;;;27.20;82.30;;;;;;5036190;28;20034;-58
